KTVI/TVI METAR and TAF weather

Enter ICAO airport designator
Station Type Date Time Source
KTVI METAR 2022/06/30 13:15 UTC NOAA

KTVI 301315Z AUTO 07003KT 5SM BR OVC003 23/22 A3021 RMK AO2


Station Type Date Time Source
KTVI Decoded METAR 2022/06/30 13:15 UTC NOAA

Thomasville, GA, United States (KTVI) 30-54-06N 083-52-53W
Jun 30, 2022 - 09:15 AM EDT / 2022.06.30 1315 UTC
Wind: from the ENE (070 degrees) at 3 MPH (3 KT):0
Visibility: 5 mile(s):0
Sky conditions: overcast
Weather: mist
Temperature: 73 F (23 C)
Dew Point: 71 F (22 C)
Relative Humidity: 94%
Pressure (altimeter): 30.21 in. Hg (1023 hPa)
ob: KTVI 301315Z AUTO 07003KT 5SM BR OVC003 23/22 A3021 RMK AO2
cycle: 13

Station Type Date Time Source
KTVI TAF UTC NOAA

Error!

Example: see airport list